Time;durP1;ratioP1;P1;durP2;ratioP2;P2;SDS_P1;SDS_P2;PMS_P1;PMS_P2;Temp;Humidity;BMP_temperature;BMP_pressure;BME280_temperature;BME280_humidity;BME280_pressure;Samples;Min_cycle;Max_cycle;Signal;HPM_P1;HPM_P2
2021/10/05 00:01:45;;;;;;;2.67;1.80;;;;;;;10.39;100.00;100901.38;4965907;28;20242;-72
2021/10/05 00:04:11;;;;;;;2.63;1.93;;;;;;;10.44;100.00;100902.22;4923166;29;20245;-72
2021/10/05 00:06:39;;;;;;;3.13;1.87;;;;;;;10.44;100.00;100885.13;4936783;29;20239;-71
2021/10/05 00:09:04;;;;;;;2.63;2.00;;;;;;;10.52;100.00;100882.69;4954771;28;20676;-72
2021/10/05 00:11:32;;;;;;;2.13;1.93;;;;;;;10.45;100.00;100879.38;4956046;28;20234;-73
2021/10/05 00:13:58;;;;;;;2.00;1.80;;;;;;;10.49;100.00;100885.94;4944767;28;20211;-71
2021/10/05 00:16:26;;;;;;;3.63;1.73;;;;;;;10.49;100.00;100894.09;4936535;29;20222;-72
2021/10/05 00:18:52;;;;;;;3.50;2.10;;;;;;;10.43;100.00;100878.84;4944532;29;20191;-72
2021/10/05 00:21:22;;;;;;;2.17;1.80;;;;;;;10.49;100.00;100871.53;4927308;29;20245;-72
2021/10/05 00:23:51;;;;;;;2.37;2.10;;;;;;;10.35;100.00;100880.44;4934467;28;20233;-72
2021/10/05 00:26:18;;;;;;;2.40;2.10;;;;;;;10.45;100.00;100876.66;4955980;28;20663;-71
2021/10/05 00:28:44;;;;;;;3.23;2.07;;;;;;;10.52;100.00;100871.81;4928685;29;20711;-72
2021/10/05 00:31:09;;;;;;;1.93;1.70;;;;;;;10.46;100.00;100859.31;4921042;29;20241;-72
2021/10/05 00:33:37;;;;;;;2.80;1.97;;;;;;;10.50;100.00;100859.59;4953241;28;20186;-71
2021/10/05 00:36:03;;;;;;;2.03;1.83;;;;;;;10.49;100.00;100857.94;4936750;28;20859;-71
2021/10/05 00:38:28;;;;;;;3.60;2.70;;;;;;;10.45;100.00;100860.38;4913550;29;20270;-72
2021/10/05 00:40:56;;;;;;;2.50;2.30;;;;;;;10.47;100.00;100852.78;4919788;29;20231;-72
2021/10/05 00:43:24;;;;;;;3.83;2.10;;;;;;;10.47;100.00;100847.34;4913296;29;20184;-74
2021/10/05 00:45:53;;;;;;;2.07;1.83;;;;;;;10.52;100.00;100844.66;4950249;29;20234;-73
2021/10/05 00:48:23;;;;;;;2.23;2.03;;;;;;;10.45;100.00;100838.66;4915360;29;20569;-72
2021/10/05 00:50:51;;;;;;;2.97;2.07;;;;;;;10.39;100.00;100834.31;4919224;29;20327;-72
2021/10/05 00:53:18;;;;;;;3.43;2.27;;;;;;;10.38;100.00;100831.84;4904222;29;20242;-73
2021/10/05 00:55:46;;;;;;;2.67;1.97;;;;;;;10.44;100.00;100839.75;4917214;29;20874;-72
2021/10/05 00:58:12;;;;;;;4.27;1.87;;;;;;;10.48;100.00;100827.28;4921623;29;20193;-70
2021/10/05 01:00:37;;;;;;;3.10;2.20;;;;;;;10.52;100.00;100822.94;4956367;28;20226;-72
2021/10/05 01:03:04;;;;;;;2.10;2.00;;;;;;;10.57;100.00;100820.25;4973307;28;20674;-71
2021/10/05 01:05:30;;;;;;;1.90;1.80;;;;;;;10.58;100.00;100818.34;4939154;28;20252;-72
2021/10/05 01:07:58;;;;;;;4.10;2.10;;;;;;;10.43;100.00;100810.94;4939774;28;20664;-72
2021/10/05 01:10:23;;;;;;;3.40;2.00;;;;;;;10.38;100.00;100818.28;4904481;29;20293;-71
2021/10/05 01:12:52;;;;;;;3.10;2.10;;;;;;;10.33;100.00;100818.28;4920531;29;20194;-71
2021/10/05 01:15:18;;;;;;;2.00;1.90;;;;;;;10.21;100.00;100814.97;4922244;28;20270;-72
2021/10/05 01:17:47;;;;;;;2.27;1.97;;;;;;;10.30;100.00;100809.84;4955765;28;20178;-72
2021/10/05 01:20:13;;;;;;;2.73;2.10;;;;;;;10.46;100.00;100802.28;4968430;28;20628;-71
2021/10/05 01:22:41;;;;;;;2.17;1.80;;;;;;;10.54;100.00;100815.34;4955823;28;20562;-71
2021/10/05 01:25:11;;;;;;;2.13;2.00;;;;;;;10.58;100.00;100797.41;4959232;28;20648;-71
2021/10/05 01:27:55;;;;;;;2.40;2.10;;;;;;;10.62;100.00;100794.97;4956976;28;20190;-72
2021/10/05 01:30:21;;;;;;;2.10;1.90;;;;;;;10.67;100.00;100787.66;4953106;28;20762;-72
2021/10/05 01:32:47;;;;;;;2.70;2.17;;;;;;;10.66;100.00;100775.16;4940040;28;20548;-72
2021/10/05 01:35:18;;;;;;;2.33;2.13;;;;;;;10.67;100.00;100779.50;4924635;29;20191;-72
2021/10/05 01:37:43;;;;;;;2.33;2.10;;;;;;;10.73;100.00;100780.31;4920899;29;20191;-73
2021/10/05 01:40:11;;;;;;;3.23;2.10;;;;;;;10.62;100.00;100779.50;4948998;28;20210;-71
2021/10/05 01:42:37;;;;;;;2.23;2.00;;;;;;;10.71;100.00;100783.31;4939264;28;20268;-72
2021/10/05 01:45:07;;;;;;;2.80;2.40;;;;;;;10.72;100.00;100782.22;4927334;29;20233;-72
2021/10/05 01:47:35;;;;;;;2.40;2.10;;;;;;;10.79;100.00;100799.09;4935419;29;20262;-71
2021/10/05 01:50:01;;;;;;;4.03;2.20;;;;;;;10.77;100.00;100790.41;4930591;29;20214;-71
2021/10/05 01:52:29;;;;;;;4.27;2.30;;;;;;;10.69;100.00;100779.25;4951682;29;20222;-72
2021/10/05 01:54:56;;;;;;;2.30;2.10;;;;;;;10.66;100.00;100777.88;4954528;28;20688;-71
2021/10/05 01:57:21;;;;;;;2.67;2.03;;;;;;;10.67;100.00;100771.34;4974579;28;20222;-71
2021/10/05 01:59:47;;;;;;;2.20;2.00;;;;;;;10.62;100.00;100760.50;4951348;28;20175;-71
2021/10/05 02:02:12;;;;;;;1.87;1.77;;;;;;;10.66;100.00;100758.88;4939242;29;20229;-71
2021/10/05 02:04:44;;;;;;;2.27;2.07;;;;;;;10.60;100.00;100754.50;4945561;28;20201;-73
2021/10/05 02:07:11;;;;;;;2.27;2.07;;;;;;;10.59;100.00;100757.50;4939100;29;20900;-71
2021/10/05 02:09:39;;;;;;;2.50;2.30;;;;;;;10.58;100.00;100750.44;4937975;29;20252;-71
2021/10/05 02:12:06;;;;;;;2.17;1.77;;;;;;;10.59;100.00;100744.72;4907976;29;20237;-72
2021/10/05 02:14:34;;;;;;;2.07;1.90;;;;;;;10.58;100.00;100745.00;4940580;29;20257;-72
2021/10/05 02:17:00;;;;;;;7.20;2.50;;;;;;;10.54;100.00;100733.84;4954684;28;20252;-72
2021/10/05 02:19:28;;;;;;;2.17;1.97;;;;;;;10.49;100.00;100731.16;4974877;28;20194;-72
2021/10/05 02:21:53;;;;;;;2.63;2.20;;;;;;;10.42;100.00;100729.75;4942385;28;20251;-71
2021/10/05 02:26:51;;;;;;;3.23;2.20;;;;;;;10.43;100.00;100732.22;4958143;28;20257;-71
2021/10/05 02:29:20;;;;;;;3.53;2.30;;;;;;;10.45;100.00;100730.03;4958190;28;20194;-72
2021/10/05 02:31:50;;;;;;;4.10;2.63;;;;;;;10.51;100.00;100733.56;4945350;29;20313;-71
2021/10/05 02:34:16;;;;;;;2.47;2.10;;;;;;;10.50;100.00;100718.38;4939960;29;20277;-72
2021/10/05 02:36:42;;;;;;;3.00;2.43;;;;;;;10.46;100.00;100717.31;4927611;29;20215;-72
2021/10/05 02:39:10;;;;;;;2.47;2.27;;;;;;;10.45;100.00;100705.59;4916316;29;20357;-72
2021/10/05 02:41:37;;;;;;;2.47;2.23;;;;;;;10.53;100.00;100710.50;4918924;28;20707;-72
2021/10/05 02:44:05;;;;;;;3.07;2.20;;;;;;;10.59;100.00;100704.00;4943427;28;20182;-72
2021/10/05 02:46:31;;;;;;;4.50;2.43;;;;;;;10.47;100.00;100700.72;4941298;28;20241;-71
2021/10/05 02:49:04;;;;;;;3.03;2.13;;;;;;;10.53;100.00;100707.81;4975849;28;20664;-72
2021/10/05 02:51:30;;;;;;;2.67;2.30;;;;;;;10.46;100.00;100709.16;4957983;28;20288;-72
2021/10/05 02:53:55;;;;;;;2.63;2.30;;;;;;;10.42;100.00;100708.88;4942504;28;20182;-72
2021/10/05 02:56:21;;;;;;;2.00;1.80;;;;;;;10.51;100.00;100707.25;4938838;29;20227;-73
2021/10/05 02:58:49;;;;;;;2.87;2.23;;;;;;;10.43;100.00;100710.50;4923547;29;20194;-72
2021/10/05 03:01:19;;;;;;;4.23;2.37;;;;;;;10.55;100.00;100702.91;4925470;28;20230;-73
2021/10/05 03:03:47;;;;;;;4.50;2.60;;;;;;;10.54;100.00;100689.59;4948392;29;20630;-71
2021/10/05 03:06:12;;;;;;;2.50;2.30;;;;;;;10.63;100.00;100683.34;4939907;28;20727;-71
2021/10/05 03:08:42;;;;;;;3.10;2.37;;;;;;;10.61;100.00;100674.66;4942596;28;20191;-72
2021/10/05 03:11:12;;;;;;;2.73;2.30;;;;;;;10.66;100.00;100665.69;4938968;29;20231;-71
2021/10/05 03:13:38;;;;;;;3.00;2.50;;;;;;;10.66;100.00;100660.25;4940987;29;20202;-71
2021/10/05 03:16:09;;;;;;;2.83;2.40;;;;;;;10.74;100.00;100659.72;4927751;29;20763;-71
2021/10/05 03:18:35;;;;;;;3.87;2.73;;;;;;;10.74;100.00;100665.97;4939100;29;20205;-72
2021/10/05 03:21:03;;;;;;;2.70;2.47;;;;;;;10.67;100.00;100667.31;4941509;28;20699;-72
2021/10/05 03:23:28;;;;;;;3.63;2.50;;;;;;;10.70;100.00;100654.00;4942623;28;20669;-72
2021/10/05 03:25:59;;;;;;;3.17;2.43;;;;;;;10.71;100.00;100652.91;4943703;28;20226;-71
2021/10/05 03:28:30;;;;;;;4.60;2.50;;;;;;;10.79;100.00;100644.22;4974116;28;20182;-72
2021/10/05 03:30:56;;;;;;;3.17;2.47;;;;;;;10.81;100.00;100640.13;4968033;28;20334;-71
2021/10/05 03:33:21;;;;;;;2.50;2.27;;;;;;;10.78;100.00;100629.00;4922870;29;20183;-71
2021/10/05 03:35:47;;;;;;;4.57;2.77;;;;;;;10.80;100.00;100630.38;4938566;29;20480;-72
2021/10/05 03:38:13;;;;;;;5.03;2.87;;;;;;;10.82;100.00;100635.50;4954812;29;20238;-71
2021/10/05 03:40:43;;;;;;;4.27;2.60;;;;;;;10.84;100.00;100636.06;4942533;28;20293;-71
2021/10/05 03:43:11;;;;;;;3.80;2.90;;;;;;;10.87;100.00;100641.75;4942559;28;20182;-71
2021/10/05 03:45:38;;;;;;;4.27;2.80;;;;;;;10.86;100.00;100636.59;4938240;29;20285;-72
2021/10/05 03:48:06;;;;;;;3.93;2.87;;;;;;;10.85;100.00;100632.25;4925527;29;20199;-72
2021/10/05 03:50:32;;;;;;;3.00;2.70;;;;;;;10.91;100.00;100631.16;4921569;29;20226;-72
2021/10/05 03:52:58;;;;;;;3.37;2.90;;;;;;;10.83;100.00;100624.38;4931256;29;20206;-72
2021/10/05 03:55:30;;;;;;;3.70;2.73;;;;;;;10.87;100.00;100630.06;4940967;28;20591;-71
2021/10/05 03:57:56;;;;;;;3.73;3.00;;;;;;;10.82;100.00;100632.78;4957123;28;20205;-71
2021/10/05 04:00:26;;;;;;;4.57;3.03;;;;;;;10.82;100.00;100627.38;4949217;28;20214;-72
2021/10/05 04:02:51;;;;;;;3.90;2.87;;;;;;;11.01;100.00;100625.72;4940553;28;20817;-71
2021/10/05 04:05:17;;;;;;;4.37;3.20;;;;;;;11.00;100.00;100634.94;4941003;28;20217;-71
2021/10/05 04:07:42;;;;;;;4.63;2.97;;;;;;;11.02;100.00;100627.31;4968206;28;20652;-72
2021/10/05 04:10:08;;;;;;;5.17;3.30;;;;;;;11.01;100.00;100617.56;4973082;28;20228;-72
2021/10/05 04:12:34;;;;;;;4.83;3.00;;;;;;;10.94;100.00;100609.69;4974334;28;20194;-71
2021/10/05 04:15:02;;;;;;;4.10;3.20;;;;;;;10.95;100.00;100610.50;4956946;28;20269;-72
2021/10/05 04:17:29;;;;;;;5.33;3.20;;;;;;;10.96;100.00;100614.84;4948029;28;20329;-72
2021/10/05 04:19:57;;;;;;;4.63;3.20;;;;;;;10.88;100.00;100604.53;4941172;28;20277;-72
2021/10/05 04:22:23;;;;;;;3.13;2.80;;;;;;;10.97;100.00;100597.44;4965481;28;20603;-71
2021/10/05 04:24:51;;;;;;;4.43;3.20;;;;;;;10.96;100.00;100590.38;4940936;28;20198;-72
2021/10/05 04:27:17;;;;;;;5.23;3.00;;;;;;;10.93;100.00;100588.22;4944940;28;20250;-72
2021/10/05 04:29:43;;;;;;;5.37;3.60;;;;;;;10.81;100.00;100576.84;4962590;28;20233;-71
2021/10/05 04:32:13;;;;;;;4.33;3.50;;;;;;;10.89;100.00;100579.78;4937229;29;20230;-72
2021/10/05 04:34:47;;;;;;;4.80;3.50;;;;;;;10.86;100.00;100574.09;4922911;29;20215;-72
2021/10/05 04:37:12;;;;;;;5.07;3.10;;;;;;;10.94;100.00;100576.25;4931187;28;20644;-73
2021/10/05 04:39:43;;;;;;;3.60;3.30;;;;;;;10.89;100.00;100579.00;4973184;28;20191;-72
2021/10/05 04:42:08;;;;;;;5.47;3.40;;;;;;;10.92;100.00;100571.09;4970242;28;20225;-72
2021/10/05 04:44:34;;;;;;;5.00;3.53;;;;;;;10.87;100.00;100575.72;4956991;28;20801;-72
2021/10/05 04:46:59;;;;;;;4.27;3.70;;;;;;;10.93;100.00;100571.91;4936719;29;20318;-72
2021/10/05 04:49:28;;;;;;;5.17;3.33;;;;;;;10.98;100.00;100569.19;4941786;28;20724;-73
2021/10/05 04:51:53;;;;;;;4.50;3.50;;;;;;;10.89;100.00;100573.56;4910786;29;20227;-72
2021/10/05 04:54:19;;;;;;;7.27;3.80;;;;;;;10.93;100.00;100564.59;4937102;29;20261;-71
2021/10/05 04:56:48;;;;;;;6.43;3.90;;;;;;;10.90;100.00;100567.03;4949691;28;20245;-72
2021/10/05 04:59:19;;;;;;;4.43;3.90;;;;;;;11.04;100.00;100555.28;4940749;28;20190;-72
2021/10/05 05:01:45;;;;;;;5.97;3.90;;;;;;;11.05;100.00;100550.69;4955691;28;20223;-72
2021/10/05 05:04:10;;;;;;;4.13;3.73;;;;;;;11.06;100.00;100535.97;4955501;28;20185;-72
2021/10/05 05:06:39;;;;;;;3.97;3.37;;;;;;;11.13;100.00;100536.50;4939333;28;20277;-72
2021/10/05 05:09:05;;;;;;;4.67;3.60;;;;;;;11.08;100.00;100533.81;4907518;28;20194;-73
2021/10/05 05:11:31;;;;;;;5.67;3.50;;;;;;;11.00;100.00;100526.22;4954306;28;20222;-74
2021/10/05 05:13:58;;;;;;;4.53;3.53;;;;;;;10.94;100.00;100525.44;4956605;28;20551;-73
2021/10/05 05:16:24;;;;;;;4.80;3.80;;;;;;;11.02;100.00;100521.34;4931985;28;20703;-72
2021/10/05 05:18:53;;;;;;;5.60;3.50;;;;;;;10.99;100.00;100513.72;4948717;28;20285;-73
2021/10/05 05:21:19;;;;;;;3.83;3.40;;;;;;;10.94;100.00;100519.19;4937222;28;20226;-73
2021/10/05 05:23:45;;;;;;;5.60;4.20;;;;;;;10.83;100.00;100520.31;4955781;28;20201;-73
2021/10/05 05:26:14;;;;;;;5.33;3.90;;;;;;;11.06;100.00;100511.53;4938935;28;20233;-72
2021/10/05 05:28:41;;;;;;;6.87;3.83;;;;;;;11.08;100.00;100509.34;4948377;28;20191;-73
2021/10/05 05:31:09;;;;;;;4.63;3.90;;;;;;;11.08;100.00;100512.06;4948768;29;20238;-73
2021/10/05 05:33:35;;;;;;;7.20;3.93;;;;;;;11.08;100.00;100507.47;4932076;29;20669;-72
2021/10/05 05:36:03;;;;;;;4.33;3.63;;;;;;;11.08;100.00;100498.47;4932163;29;20289;-71
2021/10/05 05:38:29;;;;;;;4.83;3.80;;;;;;;11.05;100.00;100507.19;4941915;28;20735;-72
2021/10/05 05:40:56;;;;;;;4.07;3.67;;;;;;;11.10;100.00;100494.41;4936041;29;20286;-71
2021/10/05 05:43:27;;;;;;;4.23;3.33;;;;;;;11.20;100.00;100499.78;4909238;29;20250;-72
2021/10/05 05:45:55;;;;;;;4.20;3.53;;;;;;;11.22;100.00;100497.59;4911642;29;20302;-72
2021/10/05 05:48:20;;;;;;;3.60;3.23;;;;;;;11.23;100.00;100494.59;4929509;28;20186;-74
2021/10/05 05:50:46;;;;;;;6.10;3.53;;;;;;;11.26;100.00;100495.91;4925032;29;20670;-74
2021/10/05 05:53:14;;;;;;;4.80;3.97;;;;;;;11.21;100.00;100494.06;4934881;29;20191;-73
2021/10/05 05:55:39;;;;;;;4.33;3.40;;;;;;;11.24;100.00;100489.97;4942478;28;20284;-73
2021/10/05 05:58:11;;;;;;;5.00;3.77;;;;;;;11.17;100.00;100501.16;4934817;28;20178;-74
2021/10/05 06:00:37;;;;;;;4.90;4.00;;;;;;;11.18;100.00;100491.88;4958378;28;20272;-75
2021/10/05 06:03:03;;;;;;;4.13;3.70;;;;;;;11.19;100.00;100493.53;4940162;28;20190;-73
2021/10/05 06:05:28;;;;;;;4.60;3.83;;;;;;;11.19;100.00;100493.53;4954190;28;20293;-73
2021/10/05 06:07:56;;;;;;;4.67;3.77;;;;;;;11.23;100.00;100499.22;4907491;28;20193;-72
2021/10/05 06:10:24;;;;;;;4.73;3.83;;;;;;;11.31;100.00;100502.16;4937072;28;20584;-73
2021/10/05 06:12:53;;;;;;;4.93;4.00;;;;;;;11.27;100.00;100503.00;4938999;28;20183;-74
2021/10/05 06:15:19;;;;;;;4.93;3.90;;;;;;;11.05;100.00;100501.75;4936486;29;20245;-73
2021/10/05 06:17:45;;;;;;;5.17;3.93;;;;;;;11.06;100.00;100506.91;4951811;29;20187;-73
2021/10/05 06:20:12;;;;;;;4.73;4.00;;;;;;;11.27;100.00;100506.53;4929808;28;20178;-73
2021/10/05 06:22:38;;;;;;;6.63;4.40;;;;;;;11.36;100.00;100504.03;4939274;28;20186;-72
2021/10/05 06:25:04;;;;;;;6.30;4.60;;;;;;;11.16;100.00;100504.94;4950725;28;20209;-72
2021/10/05 06:27:30;;;;;;;5.80;4.63;;;;;;;11.30;100.00;100505.97;4938501;28;20238;-73
2021/10/05 06:29:58;;;;;;;7.00;4.60;;;;;;;11.46;100.00;100507.53;4960451;28;20590;-72
2021/10/05 06:32:24;;;;;;;7.50;4.90;;;;;;;11.37;100.00;100511.09;4938817;28;20230;-72
2021/10/05 06:34:50;;;;;;;7.30;5.10;;;;;;;11.46;100.00;100509.44;4916572;28;20240;-73
2021/10/05 06:37:18;;;;;;;5.90;4.47;;;;;;;11.60;100.00;100500.38;4950333;29;20215;-72
2021/10/05 06:39:44;;;;;;;6.10;4.53;;;;;;;11.64;100.00;100512.31;4953409;28;20191;-71
2021/10/05 06:42:12;;;;;;;4.80;4.00;;;;;;;11.69;100.00;100498.69;4939264;29;20615;-72
2021/10/05 06:44:40;;;;;;;4.97;4.40;;;;;;;11.81;100.00;100499.13;4929555;29;20187;-73
2021/10/05 06:47:06;;;;;;;4.60;4.10;;;;;;;11.73;100.00;100495.09;4970616;28;20232;-73
2021/10/05 06:49:32;;;;;;;4.80;4.00;;;;;;;11.76;100.00;100493.75;4969499;28;20277;-72
2021/10/05 06:52:03;;;;;;;4.27;3.70;;;;;;;11.76;100.00;100493.75;4926997;28;20669;-72
2021/10/05 06:54:28;;;;;;;4.67;4.27;;;;;;;11.76;100.00;100491.03;4939534;29;20187;-73
2021/10/05 06:56:57;;;;;;;5.13;3.80;;;;;;;11.85;100.00;100479.22;4938303;29;20211;-72
2021/10/05 06:59:27;;;;;;;6.13;4.23;;;;;;;11.87;100.00;100473.47;4928341;28;20529;-72
2021/10/05 07:01:52;;;;;;;5.27;4.20;;;;;;;11.76;100.00;100477.41;4955111;28;20303;-74
2021/10/05 07:04:20;;;;;;;7.53;4.33;;;;;;;11.88;100.00;100469.69;4937820;29;20187;-73
2021/10/05 07:06:51;;;;;;;4.17;3.77;;;;;;;12.04;100.00;100472.78;4906123;29;20230;-73
2021/10/05 07:09:19;;;;;;;4.30;3.70;;;;;;;11.97;100.00;100479.66;4923735;29;20187;-73
2021/10/05 07:11:47;;;;;;;4.37;3.80;;;;;;;12.03;100.00;100476.63;4967343;28;20237;-72
2021/10/05 07:14:12;;;;;;;4.87;4.00;;;;;;;12.19;100.00;100475.38;4957918;28;20185;-73
2021/10/05 07:16:40;;;;;;;6.47;3.80;;;;;;;12.10;100.00;100474.38;4937581;29;20223;-73
2021/10/05 07:19:08;;;;;;;5.83;3.73;;;;;;;12.20;100.00;100474.28;4923587;29;20187;-73
2021/10/05 07:21:33;;;;;;;4.70;3.57;;;;;;;12.32;100.00;100466.53;4937899;29;20826;-73
2021/10/05 07:24:02;;;;;;;4.10;3.70;;;;;;;12.43;100.00;100465.31;4938960;29;20315;-73
2021/10/05 07:26:29;;;;;;;4.80;3.70;;;;;;;12.47;100.00;100461.75;4938540;29;20321;-73
2021/10/05 07:28:55;;;;;;;4.50;3.30;;;;;;;12.57;100.00;100458.91;4923116;29;20367;-72
2021/10/05 07:31:20;;;;;;;5.50;3.80;;;;;;;12.52;100.00;100460.88;4942244;29;20754;-72
2021/10/05 07:33:46;;;;;;;4.83;3.77;;;;;;;12.63;100.00;100452.28;4938129;29;20195;-72
2021/10/05 07:36:16;;;;;;;4.03;3.63;;;;;;;12.75;100.00;100448.03;4934292;29;20223;-71
2021/10/05 07:38:43;;;;;;;4.73;3.90;;;;;;;12.85;100.00;100445.22;4936433;29;20677;-72
2021/10/05 07:41:09;;;;;;;5.17;3.77;;;;;;;12.86;100.00;100438.69;4927818;29;20227;-73
2021/10/05 07:43:35;;;;;;;3.97;3.57;;;;;;;12.93;100.00;100447.31;4936228;29;20213;-72
2021/10/05 07:46:00;;;;;;;4.10;3.50;;;;;;;12.94;100.00;100438.00;4956547;29;20238;-73
2021/10/05 07:48:26;;;;;;;5.50;3.97;;;;;;;12.95;100.00;100442.38;4925009;29;20181;-73
2021/10/05 07:50:52;;;;;;;4.03;3.40;;;;;;;12.96;100.00;100435.81;4951915;28;20235;-73
2021/10/05 07:53:20;;;;;;;4.37;3.13;;;;;;;12.90;100.00;100431.53;4940216;29;20674;-72
2021/10/05 07:55:48;;;;;;;5.97;3.50;;;;;;;12.88;100.00;100424.75;4945134;29;20223;-72
2021/10/05 07:58:13;;;;;;;3.57;3.27;;;;;;;13.00;100.00;100425.94;4923454;29;20230;-72
2021/10/05 08:00:41;;;;;;;4.50;3.57;;;;;;;13.07;100.00;100426.38;4945382;28;20238;-73
2021/10/05 08:03:07;;;;;;;4.27;3.30;;;;;;;13.02;100.00;100417.47;4941615;28;20190;-73
2021/10/05 08:05:35;;;;;;;4.53;3.13;;;;;;;13.09;100.00;100407.81;4970926;28;20249;-73
2021/10/05 08:08:08;;;;;;;3.70;3.40;;;;;;;13.06;100.00;100408.41;4957291;28;20190;-73
2021/10/05 08:10:38;;;;;;;3.70;3.30;;;;;;;13.19;100.00;100413.13;4943187;28;20315;-73
2021/10/05 08:13:06;;;;;;;3.50;3.20;;;;;;;13.05;100.00;100405.97;4956806;28;20711;-72
2021/10/05 08:15:32;;;;;;;3.87;3.47;;;;;;;13.13;100.00;100408.84;4973271;28;20273;-73
2021/10/05 08:17:57;;;;;;;4.23;3.40;;;;;;;13.21;100.00;100400.00;4940996;28;20190;-71
2021/10/05 08:20:23;;;;;;;4.80;3.60;;;;;;;13.25;100.00;100398.31;4940419;28;20237;-72
2021/10/05 08:22:49;;;;;;;6.00;3.60;;;;;;;13.36;100.00;100388.88;4973074;28;20174;-72
2021/10/05 08:25:17;;;;;;;3.63;3.33;;;;;;;13.43;100.00;100392.03;4972302;28;20562;-73
2021/10/05 08:27:46;;;;;;;4.27;3.27;;;;;;;13.45;100.00;100394.16;4939926;28;20186;-74
2021/10/05 08:30:17;;;;;;;4.43;3.70;;;;;;;13.51;100.00;100384.78;4937102;29;20356;-75
2021/10/05 08:32:48;;;;;;;4.63;3.90;;;;;;;13.62;100.00;100385.44;4953452;29;20179;-73
2021/10/05 08:35:14;;;;;;;4.70;3.50;;;;;;;13.53;100.00;100382.59;4952715;29;20190;-72
2021/10/05 08:37:42;;;;;;;5.57;3.50;;;;;;;13.58;100.00;100377.03;4971504;28;20255;-72
2021/10/05 08:40:11;;;;;;;4.53;3.90;;;;;;;13.68;100.00;100385.06;4941097;28;20557;-72
2021/10/05 08:42:40;;;;;;;4.77;4.30;;;;;;;13.75;100.00;100369.06;4957594;28;20293;-72
2021/10/05 08:45:06;;;;;;;5.27;4.30;;;;;;;13.58;100.00;100370.75;4955785;28;20193;-73
2021/10/05 08:47:32;;;;;;;6.67;4.77;;;;;;;13.56;100.00;100367.53;4968668;28;20666;-72
2021/10/05 08:50:01;;;;;;;6.87;4.70;;;;;;;13.61;100.00;100354.59;4956758;28;20563;-72
2021/10/05 08:52:27;;;;;;;5.73;4.70;;;;;;;13.68;100.00;100363.22;4943923;28;20222;-72
2021/10/05 08:54:55;;;;;;;5.63;4.40;;;;;;;13.61;100.00;100351.88;4955853;28;20672;-72
2021/10/05 08:57:21;;;;;;;6.20;4.57;;;;;;;13.73;100.00;100354.91;4949648;28;20229;-72
2021/10/05 08:59:46;;;;;;;5.43;4.77;;;;;;;13.77;100.00;100347.75;4956042;28;20201;-73
2021/10/05 09:02:13;;;;;;;5.80;4.93;;;;;;;13.81;100.00;100350.69;4946400;28;20267;-74
2021/10/05 09:04:42;;;;;;;6.43;5.20;;;;;;;13.75;100.00;100357.34;4924817;28;20182;-73
2021/10/05 09:07:20;;;;;;;6.87;5.70;;;;;;;13.96;100.00;100343.03;4972317;28;20826;-73
2021/10/05 09:10:02;;;;;;;5.67;4.77;;;;;;;13.84;100.00;100339.97;4940066;28;20197;-73
2021/10/05 09:12:30;;;;;;;7.17;5.33;;;;;;;13.76;100.00;100327.03;4948528;28;20718;-72
2021/10/05 09:14:55;;;;;;;6.10;5.03;;;;;;;13.83;100.00;100333.72;4926821;28;20182;-73
2021/10/05 09:17:21;;;;;;;5.67;4.70;;;;;;;14.00;100.00;100338.59;4938256;29;20607;-75
2021/10/05 09:19:47;;;;;;;6.67;5.53;;;;;;;13.87;100.00;100321.06;4921331;29;20194;-74
2021/10/05 09:22:17;;;;;;;6.57;5.10;;;;;;;14.01;100.00;100323.81;4944956;28;20240;-72
2021/10/05 09:24:46;;;;;;;5.77;4.67;;;;;;;13.97;100.00;100318.16;4940177;28;20186;-73
2021/10/05 09:27:14;;;;;;;6.63;5.47;;;;;;;13.96;100.00;100310.28;4935508;29;20223;-71
2021/10/05 09:29:43;;;;;;;7.37;5.40;;;;;;;13.85;100.00;100317.84;4921338;29;20194;-72
2021/10/05 09:32:10;;;;;;;5.83;5.33;;;;;;;13.86;100.00;100319.47;4927200;28;20286;-73
2021/10/05 09:34:55;;;;;;;5.87;5.27;;;;;;;13.61;100.00;100319.13;4939903;28;20241;-73
2021/10/05 09:37:24;;;;;;;6.43;5.70;;;;;;;13.70;100.00;100328.25;4965554;28;20202;-71
2021/10/05 09:39:50;;;;;;;6.13;5.53;;;;;;;13.65;100.00;100322.88;4924145;28;20174;-74
2021/10/05 09:42:20;;;;;;;5.83;5.07;;;;;;;13.69;100.00;100320.34;4942597;28;20230;-73
2021/10/05 09:44:53;;;;;;;5.93;5.33;;;;;;;13.50;100.00;100311.41;4971480;28;20202;-73
2021/10/05 09:47:49;;;;;;;6.87;5.83;;;;;;;13.70;100.00;100306.41;4967005;28;20229;-74
2021/10/05 09:50:16;;;;;;;6.33;5.70;;;;;;;13.63;100.00;100305.97;4937768;28;20202;-74
2021/10/05 09:52:49;;;;;;;6.80;6.10;;;;;;;13.65;100.00;100298.28;4945190;28;20187;-74
2021/10/05 09:55:23;;;;;;;6.83;5.80;;;;;;;13.71;100.00;100291.63;4939600;28;20547;-74
2021/10/05 09:57:48;;;;;;;7.10;6.00;;;;;;;13.75;100.00;100292.63;4929312;29;20195;-73
2021/10/05 10:00:19;;;;;;;6.93;6.23;;;;;;;13.69;100.00;100299.31;4919749;29;20183;-73
2021/10/05 10:02:50;;;;;;;7.07;5.93;;;;;;;13.63;100.00;100289.59;4949595;28;20221;-72
2021/10/05 10:05:20;;;;;;;7.00;6.30;;;;;;;13.51;100.00;100297.44;4939042;28;20198;-73
2021/10/05 10:07:49;;;;;;;7.00;6.40;;;;;;;13.63;100.00;100283.34;4951019;28;20186;-74
2021/10/05 10:10:17;;;;;;;7.27;6.57;;;;;;;13.70;100.00;100284.56;4954848;28;20190;-72
2021/10/05 10:12:46;;;;;;;8.23;6.90;;;;;;;13.78;100.00;100285.78;4942524;28;20277;-73
2021/10/05 10:15:14;;;;;;;7.73;7.03;;;;;;;13.65;100.00;100281.91;4969025;28;20186;-74
2021/10/05 10:17:43;;;;;;;7.97;6.83;;;;;;;13.69;100.00;100293.06;4953135;29;20179;-75
2021/10/05 10:20:23;;;;;;;8.00;6.73;;;;;;;13.61;100.00;100278.19;4924487;29;20187;-75
2021/10/05 10:22:50;;;;;;;7.47;6.67;;;;;;;13.73;100.00;100275.75;4932636;28;20200;-74
2021/10/05 10:25:32;;;;;;;7.90;7.10;;;;;;;13.87;100.00;100268.41;4967892;28;20189;-73
2021/10/05 10:28:11;;;;;;;7.93;7.00;;;;;;;13.92;100.00;100262.84;4925695;29;20199;-74
2021/10/05 10:30:47;;;;;;;8.27;7.50;;;;;;;14.04;100.00;100268.63;4907550;29;20260;-75
2021/10/05 10:33:17;;;;;;;9.33;8.33;;;;;;;14.10;100.00;100262.78;4947653;28;20185;-74
2021/10/05 10:35:51;;;;;;;8.63;7.80;;;;;;;14.06;100.00;100255.47;4954912;29;20223;-74
2021/10/05 10:38:27;;;;;;;8.33;7.53;;;;;;;13.92;100.00;100260.13;4932414;29;20194;-74
2021/10/05 10:40:53;;;;;;;9.60;7.47;;;;;;;13.97;100.00;100252.63;4921317;29;20696;-73
2021/10/05 10:43:22;;;;;;;8.40;7.23;;;;;;;14.04;100.00;100250.31;4893568;29;20300;-73
2021/10/05 10:45:55;;;;;;;8.33;7.53;;;;;;;14.21;100.00;100244.22;4904420;29;20246;-73
2021/10/05 10:48:27;;;;;;;9.60;7.77;;;;;;;14.20;100.00;100240.69;4947254;28;20194;-73
2021/10/05 10:50:53;;;;;;;8.80;7.47;;;;;;;14.17;100.00;100241.28;4945899;28;20238;-73
2021/10/05 10:53:33;;;;;;;8.80;7.23;;;;;;;14.16;100.00;100236.16;4937030;29;20199;-73
2021/10/05 10:56:01;;;;;;;8.83;7.93;;;;;;;14.17;100.00;100240.50;4907430;29;20226;-73
2021/10/05 10:58:50;;;;;;;9.60;7.77;;;;;;;14.21;100.00;100227.84;4944538;28;20214;-73
2021/10/05 11:01:18;;;;;;;8.30;7.50;;;;;;;14.23;100.00;100223.69;4938562;28;20713;-74
2021/10/05 11:03:43;;;;;;;8.33;7.53;;;;;;;14.33;100.00;100224.28;4939260;28;20194;-74
2021/10/05 11:06:13;;;;;;;7.90;7.20;;;;;;;14.38;100.00;100218.69;4925937;28;20238;-73
2021/10/05 11:08:54;;;;;;;9.10;8.20;;;;;;;14.50;100.00;100218.97;4963123;28;20198;-74
2021/10/05 11:11:44;;;;;;;8.50;7.60;;;;;;;14.53;100.00;100223.81;4958445;28;20226;-73
2021/10/05 11:14:14;;;;;;;8.50;7.70;;;;;;;14.30;100.00;100218.59;4951433;28;20186;-73
2021/10/05 11:16:42;;;;;;;8.17;7.37;;;;;;;14.28;100.00;100224.41;4938662;28;20257;-74
2021/10/05 11:19:17;;;;;;;8.07;7.20;;;;;;;14.53;100.00;100223.81;4943233;28;20202;-73
2021/10/05 11:21:49;;;;;;;7.90;7.10;;;;;;;14.34;100.00;100217.69;4922847;29;20604;-73
2021/10/05 11:24:16;;;;;;;7.70;7.00;;;;;;;14.36;100.00;100212.75;4954279;28;20668;-74